createdAt,value
2018-05-01T00:01:00.838Z,935.34
2018-05-01T00:02:08.910Z,935.38
2018-05-01T00:03:16.955Z,935.41
2018-05-01T00:04:25.008Z,935.43
2018-05-01T00:05:33.174Z,935.45
2018-05-01T00:06:41.137Z,935.46
2018-05-01T00:07:49.203Z,935.49
2018-05-01T00:08:57.274Z,935.48
2018-05-01T00:10:05.304Z,935.44
2018-05-01T00:11:13.497Z,935.47
2018-05-01T00:12:21.436Z,935.44
2018-05-01T00:13:29.611Z,935.42
2018-05-01T00:14:37.563Z,935.43
2018-05-01T00:15:45.634Z,935.39
2018-05-01T00:16:53.792Z,935.41
2018-05-01T00:18:01.757Z,935.40
2018-05-01T00:19:09.831Z,935.40
2018-05-01T00:20:17.854Z,935.37
2018-05-01T00:21:26.003Z,935.41
2018-05-01T00:22:34.083Z,935.35
2018-05-01T00:23:42.035Z,935.35
2018-05-01T00:24:50.108Z,935.36
2018-05-01T00:25:58.163Z,935.34
2018-05-01T00:27:06.229Z,935.28
2018-05-01T00:28:14.390Z,935.27
2018-05-01T00:29:22.462Z,935.25
2018-05-01T00:30:30.404Z,935.27
2018-05-01T00:31:38.479Z,935.22
2018-05-01T00:32:46.525Z,935.21
2018-05-01T00:33:54.680Z,935.24
2018-05-01T00:35:02.646Z,935.21
2018-05-01T00:36:10.702Z,935.23
2018-05-01T00:37:18.766Z,935.25
2018-05-01T00:38:26.829Z,935.30
2018-05-01T00:39:34.956Z,935.26
2018-05-01T00:40:42.956Z,935.27
2018-05-01T00:41:51.020Z,935.25
2018-05-01T00:42:59.180Z,935.25
2018-05-01T00:44:07.116Z,935.25
2018-05-01T00:45:15.263Z,935.20
2018-05-01T00:46:23.241Z,935.26
2018-05-01T00:47:31.318Z,935.25
2018-05-01T00:48:39.375Z,935.25
2018-05-01T00:49:47.441Z,935.25
2018-05-01T00:50:55.573Z,935.25
2018-05-01T00:52:03.547Z,935.28
2018-05-01T00:53:11.621Z,935.26
2018-05-01T00:54:19.676Z,935.27
2018-05-01T00:55:27.737Z,935.29
2018-05-01T00:56:35.895Z,935.28
2018-05-01T00:57:43.860Z,935.30
2018-05-01T00:58:51.914Z,935.32
2018-05-01T00:59:59.964Z,935.33
2018-05-01T01:01:08.149Z,935.29
2018-05-01T01:02:16.190Z,935.31
2018-05-01T01:03:24.156Z,935.30
2018-05-01T01:04:32.387Z,935.32
2018-05-01T01:05:40.291Z,935.32
2018-05-01T01:06:48.354Z,935.31
2018-05-01T01:07:56.490Z,935.34
2018-05-01T01:09:04.451Z,935.29
2018-05-01T01:10:12.521Z,935.32
2018-05-01T01:11:20.579Z,935.31
2018-05-01T01:12:28.640Z,935.33
2018-05-01T01:13:36.781Z,935.31
2018-05-01T01:14:44.734Z,935.34
2018-05-01T01:15:52.822Z,935.37
2018-05-01T01:17:00.960Z,935.34
2018-05-01T01:18:08.929Z,935.35
2018-05-01T01:19:17.080Z,935.37
2018-05-01T01:20:25.037Z,935.40
2018-05-01T01:21:33.123Z,935.41
2018-05-01T01:22:41.169Z,935.41
2018-05-01T01:23:49.235Z,935.37
2018-05-01T01:24:57.523Z,935.40
2018-05-01T01:26:05.336Z,935.42
2018-05-01T01:27:13.422Z,935.42
2018-05-01T01:28:21.485Z,935.43
2018-05-01T01:29:29.540Z,935.43
2018-05-01T01:30:37.683Z,935.43
2018-05-01T01:31:45.652Z,935.44
2018-05-01T01:32:53.822Z,935.42
2018-05-01T01:34:01.779Z,935.43
2018-05-01T01:35:09.852Z,935.45
2018-05-01T01:36:17.997Z,935.45
2018-05-01T01:37:25.964Z,935.46
2018-05-01T01:38:34.013Z,935.42
2018-05-01T01:39:42.064Z,935.41
2018-05-01T01:40:50.140Z,935.41
2018-05-01T01:41:58.279Z,935.43
2018-05-01T01:43:06.264Z,935.44
2018-05-01T01:44:14.306Z,935.44
2018-05-01T01:45:22.378Z,935.50
2018-05-01T01:46:30.429Z,935.51
2018-05-01T01:47:38.599Z,935.48
2018-05-01T01:48:46.647Z,935.52
2018-05-01T01:49:54.604Z,935.52
2018-05-01T01:51:02.676Z,935.53
2018-05-01T01:52:10.733Z,935.53
2018-05-01T01:53:18.887Z,935.56
2018-05-01T01:54:26.893Z,935.54
2018-05-01T01:55:34.886Z,935.52
2018-05-01T01:56:42.970Z,935.57
2018-05-01T01:57:51.032Z,935.55
2018-05-01T01:58:59.187Z,935.57
2018-05-01T02:00:07.149Z,935.55
2018-05-01T02:01:15.181Z,935.57
2018-05-01T02:02:23.266Z,935.56
2018-05-01T02:03:31.342Z,935.58
2018-05-01T02:04:39.479Z,935.56
2018-05-01T02:05:47.455Z,935.64
2018-05-01T02:06:55.487Z,935.61
2018-05-01T02:08:03.629Z,935.60
2018-05-01T02:09:11.641Z,935.64
2018-05-01T02:10:19.778Z,935.67
2018-05-01T02:11:27.760Z,935.64
2018-05-01T02:12:35.801Z,935.69
2018-05-01T02:13:43.851Z,935.71
2018-05-01T02:14:51.935Z,935.71
2018-05-01T02:16:00.076Z,935.70
2018-05-01T02:17:08.034Z,935.72
2018-05-01T02:18:16.120Z,935.73
2018-05-01T02:19:24.167Z,935.67
2018-05-01T02:20:32.325Z,935.70
2018-05-01T02:21:40.383Z,935.72
2018-05-01T02:22:48.348Z,935.72
2018-05-01T02:23:56.409Z,935.69
2018-05-01T02:25:04.466Z,935.73
2018-05-01T02:26:12.536Z,935.68
2018-05-01T02:27:20.684Z,935.65
2018-05-01T02:28:28.651Z,935.66
2018-05-01T02:29:36.706Z,935.68
2018-05-01T02:30:44.748Z,935.72
2018-05-01T02:31:52.835Z,935.72
2018-05-01T02:33:00.987Z,935.76
2018-05-01T02:34:08.944Z,935.76
2018-05-01T02:35:16.997Z,935.79
2018-05-01T02:36:25.143Z,935.80
2018-05-01T02:37:33.116Z,935.79
2018-05-01T02:38:41.271Z,935.78
2018-05-01T02:39:49.236Z,935.81
2018-05-01T02:40:57.318Z,935.81
2018-05-01T02:42:05.346Z,935.76
2018-05-01T02:43:13.428Z,935.82
2018-05-01T02:44:21.589Z,935.81
2018-05-01T02:45:29.530Z,935.75
2018-05-01T02:46:37.593Z,935.76
2018-05-01T02:47:45.651Z,935.75
2018-05-01T02:48:53.712Z,935.75
2018-05-01T02:50:01.883Z,935.80
2018-05-01T02:51:09.841Z,935.83
2018-05-01T02:52:17.994Z,935.81
2018-05-01T02:53:26.051Z,935.85
2018-05-01T02:54:34.063Z,935.86
2018-05-01T02:55:42.178Z,935.89
2018-05-01T02:56:50.150Z,935.87
2018-05-01T02:57:58.186Z,935.88
2018-05-01T02:59:06.257Z,935.82
2018-05-01T03:00:14.312Z,935.81
2018-05-01T03:01:22.471Z,935.83
2018-05-01T03:02:30.432Z,935.81
2018-05-01T03:03:38.496Z,935.82
2018-05-01T03:04:46.559Z,935.85
2018-05-01T03:05:54.672Z,935.83
2018-05-01T03:07:02.775Z,935.83
2018-05-01T03:08:10.842Z,935.80
2018-05-01T03:09:18.789Z,935.81
2018-05-01T03:10:26.863Z,935.74
2018-05-01T03:11:34.896Z,935.80
2018-05-01T03:12:43.069Z,935.78
2018-05-01T03:13:51.042Z,935.77
2018-05-01T03:14:59.088Z,935.77
2018-05-01T03:16:07.153Z,935.78
2018-05-01T03:17:15.205Z,935.76
2018-05-01T03:18:23.369Z,935.78
2018-05-01T03:19:31.333Z,935.77
2018-05-01T03:20:39.380Z,935.81
2018-05-01T03:21:47.442Z,935.82
2018-05-01T03:22:55.501Z,935.76
2018-05-01T03:24:03.671Z,935.79
2018-05-01T03:25:11.642Z,935.80
2018-05-01T03:26:19.689Z,935.81
2018-05-01T03:27:27.763Z,935.84
2018-05-01T03:28:35.792Z,935.86
2018-05-01T03:29:43.959Z,935.86
2018-05-01T03:30:51.931Z,935.85
2018-05-01T03:31:59.991Z,935.84
2018-05-01T03:33:08.046Z,935.85
2018-05-01T03:34:16.117Z,935.83
2018-05-01T03:35:24.264Z,935.82
2018-05-01T03:36:32.245Z,935.85
2018-05-01T03:37:40.289Z,935.80
2018-05-01T03:38:48.352Z,935.80
2018-05-01T03:39:56.512Z,935.82
2018-05-01T03:41:04.560Z,935.81
2018-05-01T03:42:12.524Z,935.81
2018-05-01T03:43:20.594Z,935.82
2018-05-01T03:44:28.648Z,935.86
2018-05-01T03:45:36.720Z,935.88
2018-05-01T03:46:44.874Z,935.88
2018-05-01T03:47:52.824Z,935.90
2018-05-01T03:49:00.890Z,935.90
2018-05-01T03:50:08.944Z,935.89
2018-05-01T03:51:17.011Z,935.91
2018-05-01T03:52:25.138Z,935.91
2018-05-01T03:53:33.132Z,935.95
2018-05-01T03:54:41.189Z,936.00
2018-05-01T03:55:49.409Z,935.98
2018-05-01T03:56:57.294Z,936.02
2018-05-01T03:58:05.446Z,936.00
2018-05-01T03:59:13.432Z,936.03
2018-05-01T04:00:21.489Z,936.02
2018-05-01T04:01:29.542Z,936.07
2018-05-01T04:02:37.611Z,936.07
2018-05-01T04:03:45.751Z,936.13
2018-05-01T04:04:53.719Z,936.16
2018-05-01T04:06:01.766Z,936.18
2018-05-01T04:07:09.850Z,936.17
2018-05-01T04:08:17.899Z,936.21
2018-05-01T04:09:26.052Z,936.19
2018-05-01T04:10:34.013Z,936.24
2018-05-01T04:11:42.179Z,936.20
2018-05-01T04:12:50.136Z,936.23
2018-05-01T04:13:58.192Z,936.20
2018-05-01T04:15:06.359Z,936.16
2018-05-01T04:16:14.319Z,936.22
2018-05-01T04:17:22.390Z,936.22
2018-05-01T04:18:30.433Z,936.23
2018-05-01T04:19:38.502Z,936.23
2018-05-01T04:20:46.651Z,936.31
2018-05-01T04:21:54.611Z,936.26
2018-05-01T04:23:02.662Z,936.27
2018-05-01T04:24:10.724Z,936.28
2018-05-01T04:25:18.868Z,936.29
2018-05-01T04:26:26.980Z,936.33
2018-05-01T04:27:34.990Z,936.32
2018-05-01T04:28:42.971Z,936.31
2018-05-01T04:29:51.030Z,936.30
2018-05-01T04:30:59.094Z,936.32
2018-05-01T04:32:07.240Z,936.25
2018-05-01T04:33:15.182Z,936.31
2018-05-01T04:34:23.272Z,936.31
2018-05-01T04:35:31.317Z,936.31
2018-05-01T04:36:39.394Z,936.32
2018-05-01T04:37:47.553Z,936.38
2018-05-01T04:38:55.491Z,936.38
2018-05-01T04:40:03.559Z,936.38
2018-05-01T04:41:11.624Z,936.40
2018-05-01T04:42:19.687Z,936.39
2018-05-01T04:43:27.844Z,936.45
2018-05-01T04:44:35.802Z,936.44
2018-05-01T04:45:43.869Z,936.47
2018-05-01T04:46:51.922Z,936.49
2018-05-01T04:47:59.980Z,936.48
2018-05-01T04:49:08.138Z,936.51
2018-05-01T04:50:16.096Z,936.50
2018-05-01T04:51:24.164Z,936.50
2018-05-01T04:52:32.216Z,936.50
2018-05-01T04:53:40.297Z,936.52
2018-05-01T04:54:48.446Z,936.49
2018-05-01T04:55:56.401Z,936.52
2018-05-01T04:57:04.459Z,936.54
2018-05-01T04:58:12.513Z,936.54
2018-05-01T04:59:20.670Z,936.54
2018-05-01T05:00:28.868Z,936.55
2018-05-01T05:01:36.701Z,936.58
2018-05-01T05:02:44.731Z,936.58
2018-05-01T05:03:52.819Z,936.57
2018-05-01T05:05:00.877Z,936.63
2018-05-01T05:06:09.035Z,936.63
2018-05-01T05:07:16.985Z,936.64
2018-05-01T05:08:25.050Z,936.69
2018-05-01T05:09:33.166Z,936.70
2018-05-01T05:10:41.169Z,936.74
2018-05-01T05:11:49.331Z,936.75
2018-05-01T05:12:57.302Z,936.76
2018-05-01T05:14:05.340Z,936.80
2018-05-01T05:15:13.525Z,936.78
2018-05-01T05:16:21.465Z,936.82
2018-05-01T05:17:29.633Z,936.80
2018-05-01T05:18:37.670Z,936.80
2018-05-01T05:19:45.649Z,936.85
2018-05-01T05:20:53.698Z,936.85
2018-05-01T05:22:01.754Z,936.81
2018-05-01T05:23:09.933Z,936.83
2018-05-01T05:24:17.897Z,936.80
2018-05-01T05:25:25.944Z,936.82
2018-05-01T05:26:34.017Z,936.82
2018-05-01T05:27:42.106Z,936.87
2018-05-01T05:28:50.222Z,936.85
2018-05-01T05:29:58.187Z,936.88
2018-05-01T05:31:06.344Z,936.88
2018-05-01T05:32:14.309Z,936.90
2018-05-01T05:33:22.389Z,936.95
2018-05-01T05:34:30.522Z,936.96
2018-05-01T05:35:38.473Z,936.93
2018-05-01T05:36:47.160Z,936.94
2018-05-01T05:37:54.592Z,936.95
2018-05-01T05:39:02.653Z,936.96
2018-05-01T05:40:10.807Z,936.95
2018-05-01T05:41:18.789Z,936.94
2018-05-01T05:42:26.836Z,936.95
2018-05-01T05:43:34.925Z,936.91
2018-05-01T05:44:42.965Z,936.94
2018-05-01T05:45:51.121Z,936.89
2018-05-01T05:46:59.297Z,936.93
2018-05-01T05:48:07.147Z,936.88
2018-05-01T05:49:15.180Z,936.89
2018-05-01T05:50:23.255Z,936.89
2018-05-01T05:51:31.420Z,936.95
2018-05-01T05:52:39.380Z,936.90
2018-05-01T05:53:47.445Z,936.94
2018-05-01T05:54:55.496Z,936.96
2018-05-01T05:56:03.568Z,936.96
2018-05-01T05:57:11.714Z,937.01
2018-05-01T05:58:19.676Z,937.05
2018-05-01T05:59:27.755Z,937.09
2018-05-01T06:00:35.810Z,937.07
2018-05-01T06:01:43.879Z,937.09
2018-05-01T06:02:53.390Z,937.11
2018-05-01T06:05:16.933Z,937.16
2018-05-01T06:06:22.764Z,937.18
2018-05-01T06:07:30.858Z,937.15
2018-05-01T06:09:46.964Z,937.21
2018-05-01T06:10:55.053Z,937.21
2018-05-01T06:12:03.082Z,937.24
2018-05-01T06:13:11.152Z,937.24
2018-05-01T06:14:19.304Z,937.24
2018-05-01T06:15:27.262Z,937.26
2018-05-01T06:16:35.339Z,937.29
2018-05-01T06:17:43.385Z,937.31
2018-05-01T06:18:51.556Z,937.28
2018-05-01T06:19:59.611Z,937.35
2018-05-01T06:21:07.572Z,937.32
2018-05-01T06:22:15.628Z,937.32
2018-05-01T06:23:23.698Z,937.28
2018-05-01T06:24:31.753Z,937.29
2018-05-01T06:25:39.909Z,937.29
2018-05-01T06:26:48.454Z,937.29
2018-05-01T06:27:55.963Z,937.33
2018-05-01T06:29:04.530Z,937.30
2018-05-01T06:30:12.662Z,937.32
2018-05-01T06:31:20.299Z,937.31
2018-05-01T06:32:28.178Z,937.30
2018-05-01T06:33:36.272Z,937.35
2018-05-01T06:34:44.550Z,937.42
2018-05-01T06:35:52.342Z,937.38
2018-05-01T06:37:00.514Z,937.41
2018-05-01T06:38:08.476Z,937.41
2018-05-01T06:39:16.555Z,937.40
2018-05-01T06:40:24.727Z,937.43
2018-05-01T06:41:32.637Z,937.45
2018-05-01T06:42:40.815Z,937.51
2018-05-01T06:43:48.773Z,937.53
2018-05-01T06:44:56.860Z,937.51
2018-05-01T06:46:04.896Z,937.53
2018-05-01T06:47:13.011Z,937.56
2018-05-01T06:48:21.115Z,937.53
2018-05-01T06:49:29.084Z,937.51
2018-05-01T06:50:37.243Z,937.53
2018-05-01T06:51:45.190Z,937.52
2018-05-01T06:52:53.271Z,937.57
2018-05-01T06:54:01.421Z,937.57
2018-05-01T06:55:09.391Z,937.56
2018-05-01T06:56:17.452Z,937.58
2018-05-01T06:57:25.509Z,937.59
2018-05-01T06:58:33.564Z,937.61
2018-05-01T06:59:41.710Z,937.60
2018-05-01T07:00:49.848Z,937.61
2018-05-01T07:01:57.746Z,937.63
2018-05-01T07:03:05.808Z,937.60
2018-05-01T07:04:13.872Z,937.61
2018-05-01T07:05:22.191Z,937.57
2018-05-01T07:06:30.094Z,937.64
2018-05-01T07:07:38.052Z,937.58
2018-05-01T07:08:46.111Z,937.61
2018-05-01T07:09:54.171Z,937.61
2018-05-01T07:11:02.306Z,937.61
2018-05-01T07:12:10.297Z,937.64
2018-05-01T07:13:18.388Z,937.63
2018-05-01T07:14:26.436Z,937.62
2018-05-01T07:15:34.467Z,937.61
2018-05-01T07:16:42.616Z,937.55
2018-05-01T07:17:50.581Z,937.56
2018-05-01T07:18:58.669Z,937.54
2018-05-01T07:20:06.721Z,937.56
2018-05-01T07:21:14.844Z,937.56
2018-05-01T07:22:23.084Z,937.55
2018-05-01T07:23:30.912Z,937.52
2018-05-01T07:24:38.969Z,937.48
2018-05-01T07:25:47.026Z,937.46
2018-05-01T07:26:55.167Z,937.48
2018-05-01T07:28:03.366Z,937.45
2018-05-01T07:29:11.364Z,937.49
2018-05-01T07:30:19.277Z,937.50
2018-05-01T07:31:27.321Z,937.51
2018-05-01T07:32:35.370Z,937.49
2018-05-01T07:33:43.535Z,937.47
2018-05-01T07:34:51.486Z,937.50
2018-05-01T07:35:59.574Z,937.46
2018-05-01T07:37:07.625Z,937.49
2018-05-01T07:38:15.797Z,937.46
2018-05-01T07:39:23.854Z,937.44
2018-05-01T07:40:31.813Z,937.49
2018-05-01T07:41:39.888Z,937.53
2018-05-01T07:42:47.931Z,937.52
2018-05-01T07:43:55.995Z,937.48
2018-05-01T07:45:04.288Z,937.52
2018-05-01T07:46:12.150Z,937.52
2018-05-01T07:47:20.181Z,937.50
2018-05-01T07:48:28.240Z,937.49
2018-05-01T07:49:36.283Z,937.50
2018-05-01T07:50:44.449Z,937.46
2018-05-01T07:51:52.412Z,937.47
2018-05-01T07:53:00.475Z,937.45
2018-05-01T07:54:08.632Z,937.39
2018-05-01T07:55:16.613Z,937.42
2018-05-01T07:56:24.793Z,937.39
2018-05-01T07:57:32.736Z,937.43
2018-05-01T07:58:40.797Z,937.48
2018-05-01T07:59:48.857Z,937.46
2018-05-01T08:00:56.894Z,937.42
2018-05-01T08:02:05.062Z,937.47
2018-05-01T08:03:13.011Z,937.45
2018-05-01T08:04:21.102Z,937.45
2018-05-01T08:05:29.159Z,937.49
2018-05-01T08:06:37.199Z,937.55
2018-05-01T08:07:45.381Z,937.60
2018-05-01T08:08:53.330Z,937.64
2018-05-01T08:10:01.485Z,937.70
2018-05-01T08:11:09.454Z,937.68
2018-05-01T08:12:17.504Z,937.71
2018-05-01T08:13:25.684Z,937.71
2018-05-01T08:14:33.642Z,937.69
2018-05-01T08:15:41.693Z,937.71
2018-05-01T08:16:49.770Z,937.71
2018-05-01T08:17:57.837Z,937.69
2018-05-01T08:19:05.979Z,937.77
2018-05-01T08:20:13.934Z,937.82
2018-05-01T08:21:21.997Z,937.87
2018-05-01T08:22:30.068Z,937.89
2018-05-01T08:23:38.156Z,937.90
2018-05-01T08:24:46.434Z,937.95
2018-05-01T08:25:54.484Z,938.02
2018-05-01T08:27:02.314Z,938.00
2018-05-01T08:28:10.395Z,938.06
2018-05-01T08:29:18.456Z,938.11
2018-05-01T08:30:26.760Z,938.11
2018-05-01T08:31:34.586Z,938.10
2018-05-01T08:32:42.601Z,938.13
2018-05-01T08:33:50.681Z,938.11
2018-05-01T08:34:58.755Z,938.12
2018-05-01T08:36:06.919Z,938.14
2018-05-01T08:37:14.864Z,938.14
2018-05-01T08:38:22.938Z,938.16
2018-05-01T08:39:31.004Z,938.16
2018-05-01T08:40:39.067Z,938.18
2018-05-01T08:41:47.360Z,938.18
2018-05-01T08:42:55.193Z,938.23
2018-05-01T08:44:03.263Z,938.20
2018-05-01T08:45:11.321Z,938.19
2018-05-01T08:46:19.370Z,938.20
2018-05-01T08:47:27.520Z,938.22
2018-05-01T08:48:35.501Z,938.24
2018-05-01T08:49:43.535Z,938.27
2018-05-01T08:50:51.630Z,938.26
2018-05-01T08:51:59.693Z,938.23
2018-05-01T08:53:07.848Z,938.24
2018-05-01T08:54:15.797Z,938.24
2018-05-01T08:55:23.880Z,938.22
2018-05-01T08:56:31.958Z,938.20
2018-05-01T08:57:40.079Z,938.24
2018-05-01T08:58:48.157Z,938.22
2018-05-01T08:59:56.110Z,938.25
2018-05-01T09:01:04.197Z,938.29
2018-05-01T09:02:12.219Z,938.32
2018-05-01T09:03:20.300Z,938.33
2018-05-01T09:04:28.458Z,938.42
2018-05-01T09:05:36.408Z,938.49
2018-05-01T09:06:44.481Z,938.51
2018-05-01T09:07:52.503Z,938.49
2018-05-01T09:09:00.591Z,938.49
2018-05-01T09:10:08.746Z,938.49
2018-05-01T09:11:16.707Z,938.55
2018-05-01T09:12:24.762Z,938.52
2018-05-01T09:13:32.938Z,938.53
2018-05-01T09:14:40.905Z,938.57
2018-05-01T09:15:49.073Z,938.53
2018-05-01T09:16:57.052Z,938.59
2018-05-01T09:18:05.291Z,938.62
2018-05-01T09:19:13.143Z,938.58
2018-05-01T09:20:21.199Z,938.66
2018-05-01T09:21:29.359Z,938.71
2018-05-01T09:22:37.330Z,938.73
2018-05-01T09:23:45.397Z,938.72
2018-05-01T09:24:53.472Z,938.76
2018-05-01T09:26:01.518Z,938.72
2018-05-01T09:27:09.679Z,938.71
2018-05-01T09:28:17.718Z,938.75
2018-05-01T09:29:25.791Z,938.74
2018-05-01T09:30:33.774Z,938.72
2018-05-01T09:31:41.829Z,938.65
2018-05-01T09:32:49.980Z,938.65
2018-05-01T09:33:57.962Z,938.66
2018-05-01T09:35:06.021Z,938.61
2018-05-01T09:36:14.113Z,938.58
2018-05-01T09:37:22.141Z,938.61
2018-05-01T09:38:30.295Z,938.57
2018-05-01T09:39:38.263Z,938.55
2018-05-01T09:40:46.335Z,938.53
2018-05-01T09:41:54.445Z,938.52
2018-05-01T09:43:02.437Z,938.56
2018-05-01T09:44:10.629Z,938.58
2018-05-01T09:45:18.683Z,938.58
2018-05-01T09:46:26.648Z,938.60
2018-05-01T09:47:34.729Z,938.62
2018-05-01T09:48:42.736Z,938.58
2018-05-01T09:49:50.948Z,938.57
2018-05-01T09:50:58.885Z,938.58
2018-05-01T09:52:06.959Z,938.54
2018-05-01T09:53:15.036Z,938.57
2018-05-01T09:54:23.083Z,938.62
2018-05-01T09:55:31.241Z,938.65
2018-05-01T09:56:39.207Z,938.66
2018-05-01T09:57:47.268Z,938.63
2018-05-01T09:58:55.331Z,938.64
2018-05-01T10:00:03.396Z,938.62
2018-05-01T10:01:11.685Z,938.67
2018-05-01T10:02:19.517Z,938.63
2018-05-01T10:03:27.583Z,938.61
2018-05-01T10:04:35.654Z,938.67
2018-05-01T10:05:43.708Z,938.70
2018-05-01T10:06:51.859Z,938.68
2018-05-01T10:07:59.857Z,938.69
2018-05-01T10:09:07.892Z,938.68
2018-05-01T10:10:16.082Z,938.64
2018-05-01T10:11:24.040Z,938.57
2018-05-01T10:12:32.167Z,938.62
2018-05-01T10:13:40.152Z,938.59
2018-05-01T10:14:48.212Z,938.64
2018-05-01T10:15:56.282Z,938.61
2018-05-01T10:17:04.426Z,938.57
2018-05-01T10:18:12.475Z,938.61
2018-05-01T10:19:20.469Z,938.62
2018-05-01T10:20:28.535Z,938.55
2018-05-01T10:21:36.594Z,938.51
2018-05-01T10:22:44.670Z,938.48
2018-05-01T10:23:52.792Z,938.48
2018-05-01T10:25:00.786Z,938.49
2018-05-01T10:26:08.852Z,938.49
2018-05-01T10:27:16.917Z,938.50
2018-05-01T10:28:24.981Z,938.48
2018-05-01T10:29:33.129Z,938.46
2018-05-01T10:30:41.109Z,938.47
2018-05-01T10:31:49.162Z,938.49
2018-05-01T10:32:57.340Z,938.47
2018-05-01T10:34:05.273Z,938.53
2018-05-01T10:35:13.462Z,938.42
2018-05-01T10:36:21.417Z,938.37
2018-05-01T10:37:29.502Z,938.30
2018-05-01T10:38:37.675Z,938.28
2018-05-01T10:39:45.613Z,938.21
2018-05-01T10:40:53.761Z,938.25
2018-05-01T10:42:01.743Z,938.25
2018-05-01T10:43:09.809Z,938.22
2018-05-01T10:44:17.869Z,938.29
2018-05-01T10:45:25.936Z,938.29
2018-05-01T10:46:34.095Z,938.37
2018-05-01T10:47:42.040Z,938.42
2018-05-01T10:48:50.234Z,938.47
2018-05-01T10:49:58.186Z,938.46
2018-05-01T10:51:06.249Z,938.52
2018-05-01T10:52:14.426Z,938.49
2018-05-01T10:53:22.360Z,938.50
2018-05-01T10:54:30.460Z,938.48
2018-05-01T10:55:38.514Z,938.42
2018-05-01T10:56:46.568Z,938.38
2018-05-01T10:57:54.735Z,938.38
2018-05-01T10:59:02.734Z,938.36
2018-05-01T11:00:10.775Z,938.39
2018-05-01T11:01:18.829Z,938.38
2018-05-01T11:02:27.036Z,938.41
2018-05-01T11:03:35.062Z,938.47
2018-05-01T11:04:43.128Z,938.49
2018-05-01T11:05:51.099Z,938.49
2018-05-01T11:06:59.156Z,938.51
2018-05-01T11:08:07.222Z,938.54
2018-05-01T11:09:15.383Z,938.59
2018-05-01T11:10:23.345Z,938.57
2018-05-01T11:11:31.429Z,938.59
2018-05-01T11:12:39.473Z,938.55
2018-05-01T11:13:47.555Z,938.60
2018-05-01T11:14:55.712Z,938.62
2018-05-01T11:16:03.687Z,938.62
2018-05-01T11:17:11.758Z,938.58
2018-05-01T11:18:19.806Z,938.61
2018-05-01T11:19:27.877Z,938.57
2018-05-01T11:20:36.050Z,938.56
2018-05-01T11:21:44.028Z,938.57
2018-05-01T11:22:52.076Z,938.56
2018-05-01T11:24:00.158Z,938.52
2018-05-01T11:25:08.216Z,938.56
2018-05-01T11:26:16.607Z,938.56
2018-05-01T11:27:24.351Z,938.52
2018-05-01T11:28:32.484Z,938.50
2018-05-01T11:29:40.494Z,938.53
2018-05-01T11:30:48.543Z,938.59
2018-05-01T11:31:56.693Z,938.59
2018-05-01T11:33:04.675Z,938.60
2018-05-01T11:34:12.721Z,938.59
2018-05-01T11:35:20.798Z,938.58
2018-05-01T11:36:28.958Z,938.59
2018-05-01T11:37:37.029Z,938.60
2018-05-01T11:38:45.020Z,938.66
2018-05-01T11:39:53.046Z,938.66
2018-05-01T11:41:01.129Z,938.67
2018-05-01T11:42:09.186Z,938.65
2018-05-01T11:43:17.363Z,938.63
2018-05-01T11:44:25.412Z,938.67
2018-05-01T11:45:33.413Z,938.65
2018-05-01T11:46:41.443Z,938.62
2018-05-01T11:47:49.512Z,938.62
2018-05-01T11:48:57.677Z,938.66
2018-05-01T11:50:05.645Z,938.62
2018-05-01T11:51:13.710Z,938.63
2018-05-01T11:52:21.885Z,938.57
2018-05-01T11:53:29.835Z,938.55
2018-05-01T11:54:38.005Z,938.57
2018-05-01T11:55:45.984Z,938.60
2018-05-01T11:56:54.050Z,938.60
2018-05-01T11:58:02.100Z,938.58
2018-05-01T11:59:10.327Z,938.60
2018-05-01T12:00:18.333Z,938.60
2018-05-01T12:01:26.312Z,938.60
2018-05-01T12:02:34.443Z,938.57
2018-05-01T12:03:42.441Z,938.63
2018-05-01T12:04:50.503Z,938.65
2018-05-01T12:05:58.803Z,938.63
2018-05-01T12:07:06.660Z,938.65
2018-05-01T12:08:14.921Z,938.66
2018-05-01T12:09:22.752Z,938.65
2018-05-01T12:10:30.899Z,938.63
2018-05-01T12:11:39.007Z,938.61
2018-05-01T12:12:46.974Z,938.58
2018-05-01T12:13:55.040Z,938.58
2018-05-01T12:15:03.100Z,938.57
2018-05-01T12:16:11.229Z,938.60
2018-05-01T12:17:19.321Z,938.66
2018-05-01T12:18:27.341Z,938.72
2018-05-01T12:19:35.364Z,938.69
2018-05-01T12:20:43.433Z,938.71
2018-05-01T12:21:51.510Z,938.67
2018-05-01T12:22:59.671Z,938.65
2018-05-01T12:24:07.730Z,938.56
2018-05-01T12:25:15.696Z,938.50
2018-05-01T12:26:23.747Z,938.51
2018-05-01T12:27:31.841Z,938.53
2018-05-01T12:28:39.992Z,938.54
2018-05-01T12:29:48.284Z,938.58
2018-05-01T12:30:56.032Z,938.57
2018-05-01T12:32:04.106Z,938.56
2018-05-01T12:33:12.148Z,938.53
2018-05-01T12:34:20.324Z,938.57
2018-05-01T12:35:28.288Z,938.59
2018-05-01T12:36:36.482Z,938.56
2018-05-01T12:37:44.434Z,938.52
2018-05-01T12:38:52.486Z,938.53
2018-05-01T12:40:00.670Z,938.56
2018-05-01T12:41:08.615Z,938.58
2018-05-01T12:42:16.690Z,938.53
2018-05-01T12:43:24.761Z,938.47
2018-05-01T12:44:32.854Z,938.48
2018-05-01T12:45:41.029Z,938.51
2018-05-01T12:46:48.958Z,938.48
2018-05-01T12:47:57.040Z,938.48
2018-05-01T12:49:05.094Z,938.47
2018-05-01T12:50:13.310Z,938.50
2018-05-01T12:51:21.324Z,938.46
2018-05-01T12:52:29.278Z,938.40
2018-05-01T12:53:37.332Z,938.45
2018-05-01T12:54:45.404Z,938.49
2018-05-01T12:55:53.572Z,938.46
2018-05-01T12:57:01.639Z,938.44
2018-05-01T12:58:09.612Z,938.42
2018-05-01T12:59:17.756Z,938.40
2018-05-01T13:00:25.753Z,938.43
2018-05-01T13:01:33.803Z,938.41
2018-05-01T13:02:41.976Z,938.41
2018-05-01T13:03:49.948Z,938.38
2018-05-01T13:04:58.050Z,938.36
2018-05-01T13:06:06.153Z,938.38
2018-05-01T13:07:14.166Z,938.35
2018-05-01T13:08:22.302Z,938.39
2018-05-01T13:09:30.296Z,938.40
2018-05-01T13:10:38.364Z,938.42
2018-05-01T13:11:46.523Z,938.43
2018-05-01T13:12:54.481Z,938.44
2018-05-01T13:14:02.631Z,938.42
2018-05-01T13:15:10.619Z,938.40
2018-05-01T13:16:18.752Z,938.40
2018-05-01T13:17:26.735Z,938.40
2018-05-01T13:18:34.810Z,938.40
2018-05-01T13:19:42.957Z,938.43
2018-05-01T13:20:50.923Z,938.44
2018-05-01T13:21:59.001Z,938.42
2018-05-01T13:23:07.066Z,938.43
2018-05-01T13:24:15.139Z,938.39
2018-05-01T13:25:23.306Z,938.41
2018-05-01T13:26:31.266Z,938.39
2018-05-01T13:27:39.440Z,938.41
2018-05-01T13:28:47.405Z,938.40
2018-05-01T13:29:55.465Z,938.37
2018-05-01T13:31:03.640Z,938.39
2018-05-01T13:32:11.607Z,938.34
2018-05-01T13:33:19.654Z,938.28
2018-05-01T13:34:27.741Z,938.30
2018-05-01T13:35:35.803Z,938.32
2018-05-01T13:36:43.963Z,938.29
2018-05-01T13:37:52.009Z,938.24
2018-05-01T13:38:59.993Z,938.21
2018-05-01T13:40:08.068Z,938.14
2018-05-01T13:41:16.141Z,938.09
2018-05-01T13:42:24.293Z,938.08
2018-05-01T13:43:32.561Z,938.10
2018-05-01T13:44:40.510Z,938.13
2018-05-01T13:45:48.397Z,938.09
2018-05-01T13:46:56.440Z,938.09
2018-05-01T13:48:04.628Z,938.10
2018-05-01T13:49:12.574Z,938.07
2018-05-01T13:50:20.671Z,938.10
2018-05-01T13:51:28.713Z,938.13
2018-05-01T13:52:36.780Z,938.13
2018-05-01T13:53:44.952Z,938.15
2018-05-01T13:54:52.927Z,938.18
2018-05-01T13:56:01.009Z,938.17
2018-05-01T13:57:09.148Z,938.16
2018-05-01T13:58:17.131Z,938.19
2018-05-01T13:59:25.420Z,938.16
2018-05-01T14:00:33.323Z,938.11
2018-05-01T14:01:41.334Z,938.08
2018-05-01T14:02:49.392Z,938.03
2018-05-01T14:03:57.464Z,938.03
2018-05-01T14:05:05.608Z,938.03
2018-05-01T14:06:13.568Z,938.02
2018-05-01T14:07:21.664Z,938.00
2018-05-01T14:08:29.718Z,937.96
2018-05-01T14:09:37.787Z,937.97
2018-05-01T14:10:46.090Z,937.99
2018-05-01T14:11:53.950Z,937.93